Time;durP1;ratioP1;P1;durP2;ratioP2;P2;SDS_P1;SDS_P2;PMS_P1;PMS_P2;Temp;Humidity;BMP_temperature;BMP_pressure;BME280_temperature;BME280_humidity;BME280_pressure;Samples;Min_cycle;Max_cycle;Signal;HPM_P1;HPM_P2
2020/12/15 00:00:16;;;;;;;0.70;0.70;;;8.40;99.90;;;9.19;100.00;123190.34;5016014;28;20484;-65
2020/12/15 00:02:42;;;;;;;0.80;0.70;;;8.50;99.90;;;9.16;100.00;120513.78;5014338;28;20505;-64
2020/12/15 00:05:09;;;;;;;0.70;0.60;;;8.50;99.90;;;9.13;100.00;117175.19;5015616;28;20952;-65
2020/12/15 00:07:37;;;;;;;0.70;0.60;;;8.40;99.90;;;9.08;100.00;114500.81;5015175;28;20453;-65
2020/12/15 00:10:05;;;;;;;0.70;0.63;;;8.40;99.90;;;9.12;100.00;111512.75;5015880;28;20548;-64
2020/12/15 00:12:33;;;;;;;0.70;0.60;;;8.40;99.90;;;8.95;100.00;107160.50;5030886;28;20469;-64
2020/12/15 00:14:59;;;;;;;0.70;0.60;;;8.40;99.90;;;9.02;100.00;103521.53;5014046;28;20435;-65
2020/12/15 00:17:26;;;;;;;0.90;0.90;;;8.30;99.90;;;9.04;100.00;100208.34;4998040;28;20438;-65
2020/12/15 00:19:54;;;;;;;0.70;0.57;;;8.30;99.90;;;9.07;100.00;97231.00;5003580;28;20458;-64
2020/12/15 00:22:21;;;;;;;0.70;0.60;;;8.30;99.90;;;8.87;100.00;91241.81;5013629;28;21012;-64
2020/12/15 00:24:48;;;;;;;0.70;0.60;;;8.20;99.90;;;8.78;100.00;85943.22;5014598;28;20448;-64
2020/12/15 00:27:15;;;;;;;0.70;0.60;;;8.00;99.90;;;8.76;100.00;80005.22;5005869;28;20478;-64
2020/12/15 00:29:43;;;;;;;0.70;0.60;;;8.00;99.90;;;8.75;100.00;73422.16;4996032;28;20468;-64
2020/12/15 00:32:10;;;;;;;0.70;0.60;;;7.90;99.90;;;8.64;100.00;66839.44;5008131;28;20468;-65
2020/12/15 00:34:37;;;;;;;0.70;0.70;;;7.90;99.90;;;8.57;100.00;60276.56;5015126;28;20456;-64
2020/12/15 00:37:08;;;;;;;0.70;0.53;;;7.80;99.90;;;8.52;100.00;52422.31;5014806;28;20472;-64
2020/12/15 00:39:35;;;;;;;0.70;0.60;;;7.70;99.90;;;8.40;100.00;42301.78;5029919;28;20545;-64
2020/12/15 00:42:02;;;;;;;0.70;0.60;;;7.70;99.90;;;8.44;100.00;34618.19;5015112;28;20921;-65
2020/12/15 00:44:29;;;;;;;0.70;0.60;;;7.70;99.90;;;8.40;100.00;30643.34;5014598;28;20843;-65
2020/12/15 00:46:57;;;;;;;0.70;0.60;;;7.60;99.90;;;8.31;100.00;30883.75;5014817;28;20441;-65
2020/12/15 00:49:24;;;;;;;0.70;0.60;;;7.60;99.90;;;8.41;100.00;32535.34;5013193;28;20473;-65
2020/12/15 00:51:51;;;;;;;0.70;0.60;;;7.60;99.90;;;8.30;100.00;34575.91;5029918;28;20468;-66
2020/12/15 00:54:19;;;;;;;0.60;0.60;;;7.50;99.90;;;8.35;100.00;36242.13;5012721;28;20428;-64
2020/12/15 00:56:48;;;;;;;0.70;0.60;;;7.50;99.90;;;8.27;100.00;37562.31;5029824;28;21036;-65
2020/12/15 00:59:16;;;;;;;0.70;0.60;;;7.50;99.90;;;8.17;100.00;39031.47;5011168;28;20450;-65
2020/12/15 01:01:43;;;;;;;0.70;0.60;;;7.40;99.90;;;8.20;100.00;39033.59;5014040;28;20436;-64
2020/12/15 01:04:14;;;;;;;3.63;2.20;;;7.40;99.90;;;8.18;100.00;38381.53;5013399;28;20455;-65
2020/12/15 01:06:41;;;;;;;0.70;0.60;;;7.40;99.90;;;8.17;100.00;38056.06;5014231;28;20477;-65
2020/12/15 01:09:09;;;;;;;0.70;0.60;;;7.40;99.90;;;8.21;100.00;37408.69;5013236;28;20444;-65
2020/12/15 01:11:36;;;;;;;0.70;0.60;;;7.40;99.90;;;8.02;100.00;36073.28;5014661;28;20999;-65
2020/12/15 01:14:09;;;;;;;0.70;0.60;;;7.40;99.90;;;8.05;100.00;34646.84;5012665;28;20535;-65
2020/12/15 01:16:40;;;;;;;0.70;0.60;;;7.30;99.90;;;7.94;100.00;32180.88;5014571;28;20424;-65
2020/12/15 01:19:08;;;;;;;0.70;0.60;;;7.30;99.90;;;7.89;100.00;29368.41;5029547;28;20531;-66
2020/12/15 01:21:38;;;;;;;0.63;0.60;;;7.30;99.90;;;7.92;100.00;26122.94;5029133;28;20456;-65
2020/12/15 01:24:05;;;;;;;0.60;0.53;;;7.30;99.90;;;7.81;100.00;22735.31;5029184;28;20967;-65
2020/12/15 01:26:50;;;;;;;0.60;0.50;;;7.30;99.90;;;7.84;100.00;18771.97;5013222;28;20945;-65
2020/12/15 01:29:17;;;;;;;0.60;0.60;;;7.20;99.90;;;7.83;100.00;14847.00;5007466;28;20452;-65
2020/12/15 01:31:44;;;;;;;0.70;0.60;;;7.20;99.90;;;7.82;100.00;11218.75;4992993;28;20874;-65
2020/12/15 01:34:21;;;;;;;0.60;0.50;;;7.20;99.90;;;7.79;100.00;7006.00;4999824;28;20471;-65
2020/12/15 01:37:03;;;;;;;0.60;0.50;;;7.20;99.90;;;7.90;100.00;3418.47;5014077;28;20895;-65
2020/12/15 01:39:30;;;;;;;0.60;0.50;;;7.20;99.90;;;7.91;100.00;794.25;5028622;28;20452;-65
2020/12/15 01:42:07;;;;;;;0.70;0.60;;;7.20;99.90;;;7.89;100.00;-2457.59;5028895;28;20427;-65
2020/12/15 01:44:37;;;;;;;0.70;0.63;;;7.20;99.90;;;7.86;100.00;-5578.19;5028877;28;20507;-65
2020/12/15 01:47:09;;;;;;;0.60;0.60;;;7.20;99.90;;;7.84;100.00;-8147.44;5014307;28;20469;-66
2020/12/15 01:49:37;;;;;;;0.60;0.50;;;7.20;99.90;;;7.96;100.00;-10453.34;5028960;28;20517;-66
2020/12/15 01:52:05;;;;;;;0.60;0.60;;;7.20;99.90;;;7.92;100.00;-12508.66;5013667;28;20455;-65
2020/12/15 01:54:45;;;;;;;0.60;0.60;;;7.20;99.90;;;7.96;100.00;-14521.44;5009157;28;20449;-66
2020/12/15 01:57:16;;;;;;;0.60;0.57;;;7.20;99.90;;;7.90;100.00;-16248.81;4993276;28;20517;-65
2020/12/15 01:59:50;;;;;;;0.60;0.50;;;7.20;99.90;;;7.82;100.00;-17839.81;4993142;28;20444;-65
2020/12/15 02:02:22;;;;;;;0.60;0.60;;;7.10;99.90;;;7.81;100.00;-19002.34;5007780;28;20458;-65
2020/12/15 02:04:56;;;;;;;0.60;0.60;;;7.10;99.90;;;7.79;100.00;-20064.38;5028874;28;20463;-66
2020/12/15 02:07:26;;;;;;;0.70;0.60;;;7.10;99.90;;;7.93;100.00;-20783.91;5012381;28;20451;-65
2020/12/15 02:09:57;;;;;;;0.60;0.60;;;7.20;99.90;;;7.88;100.00;-20896.59;5013629;28;20421;-66
2020/12/15 02:12:41;;;;;;;0.70;0.60;;;7.20;99.90;;;7.93;100.00;-20898.13;5011730;28;20480;-66
2020/12/15 02:15:12;;;;;;;0.60;0.60;;;7.20;99.90;;;7.96;100.00;-20898.97;5028671;28;20905;-66
2020/12/15 02:17:46;;;;;;;0.60;0.60;;;7.20;99.90;;;8.05;100.00;-20901.31;5012274;28;20431;-65
2020/12/15 02:20:27;;;;;;;0.70;0.60;;;7.20;99.90;;;7.91;100.00;-20897.44;5027398;28;20541;-67
2020/12/15 02:23:24;;;;;;;0.60;0.50;;;7.20;99.90;;;7.92;100.00;-20897.72;4988933;28;20497;-66
2020/12/15 02:26:01;;;;;;;0.60;0.50;;;7.20;99.90;;;8.03;100.00;-20900.63;5009815;28;20450;-66
2020/12/15 02:28:29;;;;;;;0.60;0.60;;;7.20;99.90;;;7.98;100.00;-20899.38;5016147;28;20502;-66
2020/12/15 02:30:57;;;;;;;0.60;0.50;;;7.20;99.90;;;8.05;100.00;-20901.31;5016290;28;20440;-66
2020/12/15 02:33:35;;;;;;;0.60;0.60;;;7.20;99.90;;;8.01;100.00;-20900.06;5015979;28;20469;-66
2020/12/15 02:36:03;;;;;;;0.60;0.50;;;7.20;99.90;;;7.99;100.00;-20899.66;5016063;28;20447;-66
2020/12/15 02:38:35;;;;;;;0.70;0.67;;;7.30;99.90;;;8.01;100.00;-20900.06;5014854;28;20479;-66
2020/12/15 02:41:01;;;;;;;0.70;0.60;;;7.30;99.90;;;7.95;100.00;-20898.53;5006016;28;20438;-66
2020/12/15 02:43:47;;;;;;;0.60;0.60;;;7.30;99.90;;;8.00;100.00;-20899.94;5012831;28;20493;-66
2020/12/15 02:46:17;;;;;;;0.60;0.60;;;7.30;99.90;;;8.09;100.00;-20902.41;5025053;28;20976;-66
2020/12/15 02:48:45;;;;;;;0.60;0.60;;;7.30;99.90;;;8.04;100.00;-20901.03;4997756;28;20465;-66
2020/12/15 02:51:14;;;;;;;0.60;0.60;;;7.30;99.90;;;8.06;100.00;-20901.44;4998987;28;20544;-66
2020/12/15 02:54:00;;;;;;;0.70;0.60;;;7.30;99.90;;;8.05;100.00;-20901.31;5013842;28;20923;-66
2020/12/15 02:56:29;;;;;;;0.60;0.60;;;7.30;99.90;;;7.99;100.00;-20899.66;5016835;28;20840;-67
2020/12/15 02:58:57;;;;;;;0.63;0.60;;;7.30;99.90;;;8.01;100.00;-20900.19;5032343;28;20534;-66
2020/12/15 03:01:24;;;;;;;0.60;0.60;;;7.30;99.90;;;8.00;100.00;-20899.94;5015777;28;20439;-66
2020/12/15 03:03:56;;;;;;;0.60;0.60;;;7.30;99.90;;;7.97;100.00;-20899.09;5016956;28;20507;-66
2020/12/15 03:06:37;;;;;;;0.80;0.80;;;7.30;99.90;;;8.09;100.00;-20902.28;5015341;28;20494;-66
2020/12/15 03:09:09;;;;;;;0.60;0.50;;;7.30;99.90;;;8.01;100.00;-20900.19;5015118;28;20839;-67
2020/12/15 03:11:42;;;;;;;0.60;0.60;;;7.30;99.90;;;8.05;100.00;-20901.31;5015475;28;20484;-66
2020/12/15 03:14:21;;;;;;;0.60;0.60;;;7.30;99.90;;;8.13;100.00;-20903.53;5015030;28;20563;-66
2020/12/15 03:16:49;;;;;;;0.60;0.50;;;7.30;99.90;;;8.06;100.00;-20901.59;5015060;28;20450;-66
2020/12/15 03:19:18;;;;;;;0.70;0.60;;;7.30;99.90;;;8.03;100.00;-20900.75;5031781;28;20519;-66
2020/12/15 03:21:44;;;;;;;0.70;0.60;;;7.30;99.90;;;8.07;100.00;-20901.88;5009647;28;20438;-67
2020/12/15 03:24:12;;;;;;;0.70;0.60;;;7.30;99.90;;;8.03;100.00;-20900.75;5014881;28;20455;-66
2020/12/15 03:26:42;;;;;;;0.63;0.57;;;7.30;99.90;;;7.99;100.00;-20899.66;5015483;28;20531;-66
2020/12/15 03:29:12;;;;;;;1.27;0.80;;;7.30;99.90;;;8.07;100.00;-20901.88;5014362;28;20451;-66
2020/12/15 03:31:39;;;;;;;0.60;0.60;;;7.30;99.90;;;8.05;100.00;-20901.31;5031151;28;21042;-66
2020/12/15 03:34:08;;;;;;;0.60;0.60;;;7.30;99.90;;;8.12;100.00;-20903.13;5015336;28;20468;-66
2020/12/15 03:36:37;;;;;;;0.70;0.60;;;7.30;99.90;;;7.97;100.00;-20899.09;5015045;28;20473;-65
2020/12/15 03:39:06;;;;;;;0.60;0.60;;;7.30;99.90;;;8.08;100.00;-20902.00;5014686;28;20448;-67
2020/12/15 03:41:35;;;;;;;0.60;0.60;;;7.30;99.90;;;8.02;100.00;-20900.34;5031244;28;20553;-65
2020/12/15 03:44:09;;;;;;;0.60;0.50;;;7.30;99.90;;;8.02;100.00;-20900.34;5015037;28;20455;-66
2020/12/15 03:46:44;;;;;;;1.27;1.03;;;7.30;99.90;;;7.95;100.00;-20898.53;5031710;28;20510;-66
2020/12/15 03:49:15;;;;;;;0.67;0.60;;;7.30;99.90;;;7.97;100.00;-20899.22;5030997;28;20461;-66
2020/12/15 03:51:49;;;;;;;0.60;0.60;;;7.30;99.90;;;7.84;100.00;-20895.47;4999504;28;20478;-66
2020/12/15 03:54:27;;;;;;;0.60;0.50;;;7.30;99.90;;;7.94;100.00;-20898.25;5015819;28;20434;-65
2020/12/15 03:57:24;;;;;;;0.60;0.57;;;7.30;99.90;;;7.95;100.00;-20898.53;5006995;28;20448;-65
2020/12/15 04:00:07;;;;;;;0.70;0.60;;;7.30;99.90;;;7.90;100.00;-20897.28;4995493;28;20451;-65
2020/12/15 04:02:46;;;;;;;0.60;0.60;;;7.30;99.90;;;7.94;100.00;-20898.41;4994832;28;20437;-66
2020/12/15 04:05:25;;;;;;;0.60;0.50;;;7.30;99.90;;;7.93;100.00;-20897.97;4994749;28;20449;-66
2020/12/15 04:07:55;;;;;;;0.60;0.60;;;7.30;99.90;;;7.96;100.00;-20898.81;5012969;28;20437;-68
2020/12/15 04:10:22;;;;;;;0.70;0.67;;;7.30;99.90;;;8.15;100.00;-20903.94;5011096;28;20815;-66
2020/12/15 04:12:55;;;;;;;0.60;0.50;;;7.30;99.90;;;8.03;100.00;-20900.75;4998393;28;20455;-66
2020/12/15 04:15:24;;;;;;;0.60;0.60;;;7.30;99.90;;;7.99;100.00;-20899.66;5013818;28;20456;-65
2020/12/15 04:17:53;;;;;;;0.60;0.57;;;7.30;99.90;;;7.92;100.00;-20897.72;4997087;28;20452;-67
2020/12/15 04:20:21;;;;;;;0.60;0.50;;;7.30;99.90;;;7.95;100.00;-20898.53;5010880;28;20547;-66
2020/12/15 04:22:49;;;;;;;0.60;0.50;;;7.30;99.90;;;8.02;100.00;-20900.34;5028497;28;20476;-65
2020/12/15 04:25:20;;;;;;;1.10;1.00;;;7.30;99.90;;;8.08;100.00;-20902.16;5027187;28;20456;-65
2020/12/15 04:27:47;;;;;;;0.60;0.50;;;7.40;99.90;;;8.06;100.00;-20901.59;4996215;28;20440;-66
2020/12/15 04:30:15;;;;;;;0.70;0.60;;;7.40;99.90;;;8.06;100.00;-20901.59;5013159;28;20490;-65
2020/12/15 04:32:42;;;;;;;0.97;0.90;;;7.40;99.90;;;7.96;100.00;-20898.97;5013553;28;20487;-66
2020/12/15 04:35:18;;;;;;;0.60;0.60;;;7.40;99.90;;;8.09;100.00;-20902.41;5014063;28;21003;-65
2020/12/15 04:37:50;;;;;;;0.70;0.60;;;7.40;99.90;;;8.00;100.00;-20899.94;5013637;28;20543;-66
2020/12/15 04:40:19;;;;;;;0.60;0.60;;;7.40;99.90;;;8.12;100.00;-20903.13;5023738;28;20442;-65
2020/12/15 04:42:50;;;;;;;0.70;0.60;;;7.40;99.90;;;8.11;100.00;-20902.84;4996369;28;20441;-65
2020/12/15 04:45:21;;;;;;;0.87;0.87;;;7.40;99.90;;;8.07;100.00;-20901.72;5010409;28;20794;-65
2020/12/15 04:48:04;;;;;;;0.70;0.60;;;7.40;99.90;;;8.05;100.00;-20901.31;4995874;28;20461;-65
2020/12/15 04:50:59;;;;;;;0.70;0.60;;;7.50;99.90;;;8.09;100.00;-20902.28;5014258;28;20959;-66
2020/12/15 04:53:35;;;;;;;0.70;0.70;;;7.50;99.90;;;8.20;100.00;-20905.47;5030133;28;20473;-65
2020/12/15 04:56:30;;;;;;;0.70;0.70;;;7.50;99.90;;;8.10;100.00;-20902.56;5010239;28;20440;-66
2020/12/15 04:59:20;;;;;;;0.60;0.50;;;7.50;99.90;;;8.27;100.00;-20907.13;5007154;28;20498;-66
2020/12/15 05:01:55;;;;;;;0.60;0.57;;;7.50;99.90;;;8.22;100.00;-20906.03;5006569;28;20488;-66
2020/12/15 05:04:35;;;;;;;0.60;0.50;;;7.50;99.90;;;8.21;100.00;-20905.63;5004094;28;20481;-65
2020/12/15 05:07:06;;;;;;;0.60;0.60;;;7.50;99.90;;;8.37;100.00;-20909.91;5013002;28;20451;-66
2020/12/15 05:09:52;;;;;;;0.60;0.50;;;7.50;99.90;;;8.27;100.00;-20907.28;5006503;28;20447;-66
2020/12/15 05:12:25;;;;;;;0.60;0.50;;;7.50;99.90;;;8.33;100.00;-20908.81;5010387;28;20455;-66
2020/12/15 05:14:53;;;;;;;0.60;0.50;;;7.50;99.90;;;8.30;100.00;-20907.97;5020926;28;20444;-66
2020/12/15 05:17:28;;;;;;;0.60;0.50;;;7.60;99.90;;;8.34;100.00;-20909.09;5014036;28;20422;-65
2020/12/15 05:20:06;;;;;;;0.60;0.50;;;7.60;99.90;;;8.32;100.00;-20908.66;5029534;28;20497;-65
2020/12/15 05:22:42;;;;;;;0.70;0.70;;;7.60;99.90;;;8.46;100.00;-20912.56;5019885;28;20455;-65
2020/12/15 05:25:24;;;;;;;0.70;0.60;;;7.70;99.90;;;8.44;100.00;-20912.00;5005747;28;20453;-66
2020/12/15 05:27:52;;;;;;;0.60;0.50;;;7.70;99.90;;;8.42;100.00;-20911.44;5009477;28;20458;-65
2020/12/15 05:30:24;;;;;;;0.60;0.50;;;7.70;99.90;;;8.42;100.00;-20911.31;5025041;28;20943;-65
2020/12/15 05:33:16;;;;;;;0.60;0.57;;;7.70;99.90;;;8.41;100.00;-20911.16;5004650;28;20482;-65
2020/12/15 05:36:17;;;;;;;0.60;0.60;;;7.70;99.90;;;8.47;100.00;-20912.69;4983241;28;20440;-65
2020/12/15 05:39:04;;;;;;;0.60;0.50;;;7.70;99.90;;;8.39;100.00;-20910.47;4992966;28;20539;-65
2020/12/15 05:41:39;;;;;;;0.70;0.70;;;7.70;99.90;;;8.43;100.00;-20911.59;4980029;28;20460;-65
2020/12/15 05:44:10;;;;;;;0.60;0.60;;;7.70;99.90;;;8.42;100.00;-20911.31;5007281;28;20442;-65
2020/12/15 05:46:47;;;;;;;0.67;0.60;;;7.70;99.90;;;8.50;100.00;-20913.38;5008571;28;20448;-65
2020/12/15 05:49:27;;;;;;;0.60;0.60;;;7.70;99.90;;;8.56;100.00;-20915.19;5023477;28;20563;-65
2020/12/15 05:51:55;;;;;;;0.63;0.60;;;7.80;99.90;;;8.57;100.00;-20915.47;4999482;28;20463;-66
2020/12/15 05:54:23;;;;;;;0.80;0.80;;;7.80;99.90;;;8.62;100.00;-20916.84;5012640;28;20450;-65
2020/12/15 05:57:01;;;;;;;0.70;0.60;;;7.80;99.90;;;8.56;100.00;-20915.19;5013720;28;20494;-65
2020/12/15 05:59:30;;;;;;;0.60;0.50;;;7.80;99.90;;;8.57;100.00;-20915.31;5014190;28;20424;-65
2020/12/15 06:02:05;;;;;;;0.70;0.63;;;7.80;99.90;;;8.51;100.00;-20913.66;5012526;28;20521;-65
2020/12/15 06:04:36;;;;;;;0.60;0.60;;;7.90;99.90;;;8.52;100.00;-20914.09;5013506;28;20473;-65
2020/12/15 06:07:05;;;;;;;0.60;0.60;;;7.80;99.90;;;8.64;100.00;-20917.41;5013571;28;20523;-65
2020/12/15 06:09:33;;;;;;;1.00;1.00;;;7.90;99.90;;;8.56;100.00;-20915.19;5013705;28;20497;-67
2020/12/15 06:12:01;;;;;;;0.70;0.60;;;7.90;99.90;;;8.67;100.00;-20918.09;5013589;28;20464;-65
2020/12/15 06:14:28;;;;;;;0.60;0.60;;;7.90;99.90;;;8.67;100.00;-20918.25;5013704;28;20520;-66
2020/12/15 06:16:55;;;;;;;0.60;0.50;;;7.90;99.90;;;8.59;100.00;-20916.03;5013094;28;20437;-66
2020/12/15 06:19:30;;;;;;;0.60;0.50;;;7.90;99.90;;;8.63;100.00;-20917.13;5010410;28;20548;-65
2020/12/15 06:22:01;;;;;;;0.60;0.60;;;7.90;99.90;;;8.59;100.00;-20916.03;5011463;28;20549;-65
2020/12/15 06:24:38;;;;;;;1.00;1.00;;;7.90;99.90;;;8.55;100.00;-20914.78;5013328;28;20831;-66
2020/12/15 06:27:08;;;;;;;0.63;0.60;;;7.90;99.90;;;8.64;100.00;-20917.28;5013638;28;20777;-65
2020/12/15 06:29:37;;;;;;;0.60;0.50;;;7.90;99.90;;;8.77;100.00;-20920.88;5010378;28;20426;-66
2020/12/15 06:32:15;;;;;;;0.60;0.50;;;7.90;99.90;;;8.71;100.00;-20919.34;5028811;28;20554;-66
2020/12/15 06:34:45;;;;;;;0.60;0.50;;;7.90;99.90;;;8.68;100.00;-20918.50;5013255;28;20451;-65
2020/12/15 06:37:15;;;;;;;0.70;0.60;;;7.90;99.90;;;8.83;100.00;-20922.53;5013260;28;20413;-66
2020/12/15 06:39:58;;;;;;;0.60;0.60;;;7.90;99.90;;;8.76;100.00;-20920.59;5009890;28;20488;-66
2020/12/15 06:42:25;;;;;;;0.70;0.60;;;7.90;99.90;;;8.69;100.00;-20918.78;5013778;28;20480;-65
2020/12/15 06:45:05;;;;;;;0.67;0.60;;;7.90;99.90;;;8.68;100.00;-20918.38;5013322;28;20516;-65
2020/12/15 06:47:33;;;;;;;0.70;0.60;;;7.90;99.90;;;8.70;100.00;-20919.06;5013609;28;20412;-66
2020/12/15 06:50:12;;;;;;;0.60;0.50;;;8.00;99.90;;;8.78;100.00;-20921.00;5013392;28;20452;-66
2020/12/15 06:52:40;;;;;;;0.70;0.60;;;7.90;99.90;;;8.71;100.00;-20919.22;5013873;28;20998;-66
2020/12/15 06:55:08;;;;;;;0.60;0.50;;;7.90;99.90;;;8.86;100.00;-20923.22;5012592;28;20551;-66
2020/12/15 06:57:37;;;;;;;0.70;0.70;;;8.00;99.90;;;8.83;100.00;-20922.41;5013299;28;20484;-66
2020/12/15 07:00:08;;;;;;;0.70;0.70;;;8.00;99.90;;;8.80;100.00;-20921.56;5013559;28;20424;-66
2020/12/15 07:02:36;;;;;;;0.60;0.60;;;8.00;99.90;;;8.83;100.00;-20922.53;5013382;28;20948;-66
2020/12/15 07:05:22;;;;;;;0.60;0.50;;;8.00;99.90;;;8.87;100.00;-20923.50;5011914;28;20457;-66
2020/12/15 07:07:52;;;;;;;0.70;0.60;;;8.00;99.90;;;8.84;100.00;-20922.69;5012399;28;20446;-66
2020/12/15 07:10:21;;;;;;;0.60;0.60;;;8.00;99.90;;;8.84;100.00;-20922.81;5012909;28;20426;-66
2020/12/15 07:12:50;;;;;;;0.60;0.60;;;8.00;99.90;;;8.91;100.00;-20924.75;4999865;28;20556;-67
2020/12/15 07:15:18;;;;;;;0.63;0.60;;;8.00;99.90;;;8.92;100.00;-20924.91;4997394;28;20473;-66
2020/12/15 07:17:49;;;;;;;0.60;0.60;;;8.10;99.90;;;8.84;100.00;-20922.69;4996937;28;20454;-66
2020/12/15 07:20:17;;;;;;;0.80;0.80;;;8.10;99.90;;;8.85;100.00;-20922.94;4997177;28;20462;-66
2020/12/15 07:22:44;;;;;;;0.63;0.53;;;8.10;99.90;;;8.86;100.00;-20923.22;4997183;28;20410;-65
2020/12/15 07:25:14;;;;;;;0.60;0.53;;;8.00;99.90;;;8.91;100.00;-20924.75;5029864;28;20452;-66
2020/12/15 07:27:42;;;;;;;0.60;0.60;;;8.10;99.90;;;8.98;100.00;-20926.56;4999065;28;21018;-66
2020/12/15 07:30:12;;;;;;;0.60;0.60;;;8.10;99.90;;;9.00;100.00;-20927.13;4999272;28;20761;-66
2020/12/15 07:32:39;;;;;;;0.60;0.60;;;8.10;99.90;;;8.85;100.00;-20922.94;4996258;28;20460;-67
2020/12/15 07:35:09;;;;;;;0.60;0.60;;;8.10;99.90;;;8.91;100.00;-20924.75;4995175;28;20474;-66
2020/12/15 07:37:39;;;;;;;0.70;0.60;;;8.10;99.90;;;8.95;100.00;-20925.88;4996593;28;20430;-67
2020/12/15 07:40:08;;;;;;;0.70;0.60;;;8.10;99.90;;;8.88;100.00;-20923.78;4996446;28;20433;-67
2020/12/15 07:42:36;;;;;;;0.60;0.50;;;8.10;99.90;;;9.04;100.00;-20928.22;4996571;28;20774;-66
2020/12/15 07:45:06;;;;;;;0.80;0.80;;;8.10;99.90;;;8.88;100.00;-20923.78;4996326;28;20439;-67
2020/12/15 07:47:39;;;;;;;0.60;0.50;;;8.20;99.90;;;8.97;100.00;-20926.13;4996446;28;20414;-66
2020/12/15 07:50:07;;;;;;;0.70;0.63;;;8.10;99.90;;;8.97;100.00;-20926.28;4996275;28;20447;-67
2020/12/15 07:52:36;;;;;;;0.60;0.50;;;8.10;99.90;;;8.94;100.00;-20925.44;4996218;28;20466;-67
2020/12/15 07:55:08;;;;;;;0.60;0.50;;;8.20;99.90;;;9.04;100.00;-20928.22;5006382;28;20776;-66
2020/12/15 07:57:38;;;;;;;0.60;0.60;;;8.20;99.90;;;8.92;100.00;-20924.91;5016117;28;20423;-67
2020/12/15 08:00:11;;;;;;;0.73;0.70;;;8.20;99.90;;;8.99;100.00;-20926.84;5031282;28;20414;-67
2020/12/15 08:02:41;;;;;;;0.60;0.60;;;8.20;99.90;;;8.93;100.00;-20925.16;5015867;28;20488;-66
2020/12/15 08:05:14;;;;;;;0.60;0.60;;;8.20;99.90;;;9.01;100.00;-20927.38;5015834;28;20503;-67
2020/12/15 08:07:46;;;;;;;0.60;0.60;;;8.20;99.90;;;9.03;100.00;-20927.94;5016095;28;20471;-66
2020/12/15 08:10:15;;;;;;;0.60;0.60;;;8.30;99.90;;;8.97;100.00;-20926.28;5016166;28;20417;-68
2020/12/15 08:12:44;;;;;;;0.70;0.60;;;8.30;99.90;;;9.09;100.00;-20929.59;5016073;28;20964;-67
2020/12/15 08:15:14;;;;;;;0.60;0.60;;;8.30;99.90;;;9.04;100.00;-20928.22;5030708;28;20414;-67
2020/12/15 08:17:45;;;;;;;0.60;0.50;;;8.30;99.90;;;9.09;100.00;-20929.59;5015550;28;20862;-66
2020/12/15 08:20:15;;;;;;;0.60;0.50;;;8.30;99.90;;;9.05;100.00;-20928.50;5016111;28;20908;-66
2020/12/15 08:22:45;;;;;;;1.00;0.77;;;8.30;99.90;;;9.05;100.00;-20928.50;5015517;28;20452;-67
2020/12/15 08:25:15;;;;;;;0.70;0.67;;;8.30;99.90;;;9.11;100.00;-20930.16;5005012;28;20781;-67
2020/12/15 08:27:52;;;;;;;0.60;0.60;;;8.30;99.90;;;9.11;100.00;-20930.16;4996826;28;20763;-67
2020/12/15 08:30:21;;;;;;;0.63;0.60;;;8.40;99.90;;;9.05;100.00;-20928.50;5001227;28;20422;-66
2020/12/15 08:32:50;;;;;;;0.63;0.60;;;8.40;99.90;;;9.19;100.00;-20932.38;5015566;28;20558;-67
2020/12/15 08:35:26;;;;;;;0.60;0.60;;;8.30;99.90;;;9.21;100.00;-20932.66;5015431;28;20418;-66
2020/12/15 08:37:57;;;;;;;0.70;0.67;;;8.40;99.90;;;9.10;100.00;-20929.88;5015287;28;20416;-66
2020/12/15 08:40:28;;;;;;;0.60;0.60;;;8.30;99.90;;;9.24;100.00;-20933.63;5015205;28;20416;-67
2020/12/15 08:43:00;;;;;;;0.60;0.60;;;8.30;99.90;;;9.15;100.00;-20931.13;5006302;28;20429;-67
2020/12/15 08:45:29;;;;;;;0.60;0.60;;;8.40;99.90;;;9.19;100.00;-20932.25;4998176;28;20477;-66
2020/12/15 08:48:00;;;;;;;0.70;0.60;;;8.30;99.90;;;9.22;100.00;-20932.94;4995434;28;20863;-66
2020/12/15 08:50:30;;;;;;;0.60;0.60;;;8.40;99.90;;;9.29;100.00;-20934.88;4995730;28;20418;-66
2020/12/15 08:53:17;;;;;;;0.63;0.60;;;8.40;99.90;;;9.31;100.00;-20935.41;4995233;28;20457;-67
2020/12/15 08:55:46;;;;;;;0.70;0.70;;;8.50;99.90;;;9.25;100.00;-20933.75;5010631;28;20441;-66
2020/12/15 08:58:15;;;;;;;0.70;0.70;;;8.50;99.90;;;9.25;100.00;-20933.75;5015359;28;20539;-66
2020/12/15 09:00:46;;;;;;;0.60;0.60;;;8.40;99.90;;;9.29;100.00;-20934.88;5014930;28;20417;-66
2020/12/15 09:03:17;;;;;;;0.60;0.50;;;8.40;99.90;;;9.29;100.00;-20935.00;5005780;28;20454;-66
2020/12/15 09:05:50;;;;;;;0.60;0.50;;;8.40;99.90;;;9.28;100.00;-20934.59;4995449;28;20492;-65
2020/12/15 09:08:18;;;;;;;0.60;0.57;;;8.40;99.90;;;9.20;100.00;-20932.50;4995166;28;20423;-65
2020/12/15 09:10:46;;;;;;;0.60;0.50;;;8.40;99.90;;;9.40;100.00;-20937.91;4995060;28;20520;-66
2020/12/15 09:13:14;;;;;;;0.60;0.50;;;8.50;99.90;;;9.35;100.00;-20936.69;4995569;28;20461;-65
2020/12/15 09:15:49;;;;;;;0.70;0.60;;;8.50;99.90;;;9.31;100.00;-20935.56;5014514;28;20448;-66
2020/12/15 09:18:17;;;;;;;0.93;0.93;;;8.50;99.90;;;9.32;100.00;-20935.84;5014136;28;20751;-66
2020/12/15 09:20:45;;;;;;;0.60;0.60;;;8.50;99.90;;;9.39;100.00;-20937.78;4995336;28;20414;-66
2020/12/15 09:23:12;;;;;;;0.60;0.60;;;8.50;99.90;;;9.46;100.00;-20939.56;4994737;28;20436;-65
2020/12/15 09:25:40;;;;;;;0.60;0.60;;;8.60;99.90;;;9.49;100.00;-20940.28;5000753;28;20502;-66
2020/12/15 09:28:08;;;;;;;0.60;0.60;;;8.60;99.90;;;9.50;100.00;-20940.69;4994910;28;20427;-66
2020/12/15 09:30:37;;;;;;;0.60;0.60;;;8.60;99.90;;;9.46;100.00;-20939.44;4994816;28;20454;-66
2020/12/15 09:33:09;;;;;;;0.70;0.60;;;8.70;99.90;;;9.53;100.00;-20941.38;4994400;28;20557;-66
2020/12/15 09:35:37;;;;;;;0.70;0.60;;;8.70;99.90;;;9.63;100.00;-20944.28;4994759;28;20420;-66
2020/12/15 09:38:05;;;;;;;0.70;0.60;;;8.70;99.90;;;9.61;100.00;-20943.75;4994596;28;20429;-66
2020/12/15 09:40:32;;;;;;;0.63;0.60;;;8.70;99.90;;;9.44;100.00;-20939.03;4994620;28;20449;-65
2020/12/15 09:43:00;;;;;;;0.70;0.60;;;8.70;99.90;;;9.53;100.00;-20941.53;4994418;28;20454;-65
2020/12/15 09:45:29;;;;;;;0.70;0.60;;;8.70;99.90;;;9.50;100.00;-20940.53;4994433;28;20500;-66
2020/12/15 09:47:59;;;;;;;0.80;0.77;;;8.80;99.90;;;9.54;100.00;-20941.66;4994154;28;20414;-65
2020/12/15 09:50:29;;;;;;;0.60;0.60;;;8.80;99.90;;;9.66;100.00;-20945.13;4994765;28;20426;-65
2020/12/15 09:52:58;;;;;;;0.60;0.60;;;8.80;99.90;;;9.77;100.00;-20947.88;4994223;28;20950;-65
2020/12/15 09:55:27;;;;;;;0.70;0.70;;;8.80;99.90;;;9.83;100.00;-20949.56;5007382;28;20469;-66
2020/12/15 09:58:01;;;;;;;0.63;0.60;;;8.90;99.90;;;9.80;100.00;-20948.72;5013667;28;20505;-66
2020/12/15 10:00:29;;;;;;;0.70;0.60;;;8.90;99.90;;;9.91;100.00;-20951.91;5013060;28;20453;-65
2020/12/15 10:02:57;;;;;;;0.70;0.60;;;8.90;99.90;;;9.70;100.00;-20946.09;5013267;28;20798;-65
2020/12/15 10:05:26;;;;;;;0.60;0.60;;;8.90;99.90;;;9.70;100.00;-20945.94;4997660;28;20529;-66
2020/12/15 10:07:54;;;;;;;0.70;0.60;;;8.90;99.90;;;9.81;100.00;-20949.00;5013835;28;20419;-66
2020/12/15 10:10:23;;;;;;;0.60;0.60;;;8.90;99.90;;;9.90;100.00;-20951.63;5013729;28;20494;-65
2020/12/15 10:12:51;;;;;;;0.63;0.60;;;8.90;99.90;;;9.88;100.00;-20950.94;5012210;28;20461;-66
2020/12/15 10:15:20;;;;;;;0.70;0.60;;;8.90;99.90;;;9.87;100.00;-20950.66;5011812;28;20456;-66
2020/12/15 10:17:48;;;;;;;0.70;0.67;;;9.00;99.90;;;10.03;100.00;-20955.09;5006860;28;20450;-66
2020/12/15 10:20:17;;;;;;;0.70;0.70;;;9.00;99.90;;;9.98;100.00;-20953.56;4994194;28;20536;-66
2020/12/15 10:22:45;;;;;;;0.70;0.60;;;9.00;99.90;;;10.13;100.00;-20957.72;4993894;28;20942;-66
2020/12/15 10:25:12;;;;;;;0.70;0.60;;;9.00;99.90;;;10.16;100.00;-20958.53;5004909;28;20831;-66
2020/12/15 10:27:40;;;;;;;0.60;0.60;;;9.00;99.90;;;10.13;100.00;-20957.84;5013587;28;20427;-66
2020/12/15 10:30:09;;;;;;;0.63;0.60;;;9.00;99.90;;;10.26;100.00;-20961.19;5013469;28;20439;-66
2020/12/15 10:32:37;;;;;;;0.70;0.60;;;9.10;99.90;;;10.10;100.00;-20957.03;5007534;28;20559;-65
2020/12/15 10:35:06;;;;;;;0.80;0.80;;;9.00;99.90;;;10.13;100.00;-20957.72;4993779;28;20449;-66
2020/12/15 10:37:35;;;;;;;0.70;0.60;;;9.10;99.90;;;10.30;100.00;-20962.28;4993627;28;20848;-66